createdAt,value
2022-10-14T00:01:20.904Z,12.43
2022-10-14T00:03:50.391Z,12.37
2022-10-14T00:06:25.078Z,12.47
2022-10-14T00:08:54.031Z,12.49
2022-10-14T00:11:24.909Z,12.48
2022-10-14T00:13:56.066Z,12.47
2022-10-14T00:16:26.218Z,12.52
2022-10-14T00:18:54.622Z,12.52
2022-10-14T00:21:24.792Z,12.17
2022-10-14T00:23:53.077Z,12.11
2022-10-14T00:26:23.371Z,12.14
2022-10-14T00:28:52.941Z,12.06
2022-10-14T00:31:21.895Z,12.05
2022-10-14T00:33:50.962Z,12.01
2022-10-14T00:36:22.484Z,12.08
2022-10-14T00:38:53.136Z,12.08
2022-10-14T00:41:24.688Z,12.06
2022-10-14T00:43:59.032Z,12.10
2022-10-14T00:46:30.695Z,11.99
2022-10-14T00:49:08.947Z,11.93
2022-10-14T00:51:40.139Z,11.80
2022-10-14T00:54:11.326Z,11.75
2022-10-14T00:56:39.962Z,11.76
2022-10-14T00:59:12.313Z,11.68
2022-10-14T01:01:40.767Z,11.75
2022-10-14T01:04:08.968Z,11.74
2022-10-14T01:06:45.506Z,11.74
2022-10-14T01:09:27.420Z,11.82
2022-10-14T01:12:28.020Z,11.83
2022-10-14T01:15:08.447Z,11.88
2022-10-14T01:17:47.626Z,11.72
2022-10-14T01:20:42.821Z,11.82
2022-10-14T01:23:42.982Z,11.75
2022-10-14T01:26:27.399Z,11.75
2022-10-14T01:29:05.890Z,11.90
2022-10-14T01:31:39.658Z,11.98
2022-10-14T01:34:13.397Z,12.05
2022-10-14T01:36:48.511Z,12.19
2022-10-14T01:39:23.023Z,12.19
2022-10-14T01:41:56.458Z,12.24
2022-10-14T01:44:28.188Z,12.26
2022-10-14T01:47:00.258Z,12.30
2022-10-14T01:49:33.974Z,12.31
2022-10-14T01:52:06.903Z,12.29
2022-10-14T01:54:38.842Z,12.29
2022-10-14T01:57:11.359Z,12.19
2022-10-14T01:59:41.516Z,12.20
2022-10-14T02:02:12.749Z,12.17
2022-10-14T02:04:42.947Z,12.05
2022-10-14T02:07:17.276Z,11.94
2022-10-14T02:09:55.657Z,11.75
2022-10-14T02:12:39.741Z,11.61
2022-10-14T02:15:16.755Z,11.74
2022-10-14T02:21:25.689Z,11.74
2022-10-14T02:24:21.442Z,11.85
2022-10-14T02:26:51.920Z,11.83
2022-10-14T02:29:23.148Z,12.07
2022-10-14T02:31:57.979Z,12.10
2022-10-14T02:34:28.094Z,12.24
2022-10-14T02:36:59.031Z,12.16
2022-10-14T02:39:31.887Z,11.91
2022-10-14T02:42:00.263Z,11.94
2022-10-14T02:44:28.679Z,11.87
2022-10-14T02:46:57.246Z,12.03
2022-10-14T02:49:29.478Z,12.09
2022-10-14T02:51:59.551Z,12.22
2022-10-14T02:54:28.011Z,12.25
2022-10-14T02:56:56.415Z,12.16
2022-10-14T02:59:26.104Z,12.43
2022-10-14T03:01:54.421Z,12.44
2022-10-14T03:04:23.381Z,12.66
2022-10-14T03:06:54.005Z,12.67
2022-10-14T03:09:26.060Z,12.61
2022-10-14T03:11:55.567Z,12.33
2022-10-14T03:14:25.579Z,12.10
2022-10-14T03:16:54.379Z,11.66
2022-10-14T03:19:25.417Z,12.28
2022-10-14T03:21:56.632Z,12.14
2022-10-14T03:24:26.465Z,11.86
2022-10-14T03:27:13.524Z,12.28
2022-10-14T03:29:43.018Z,12.30
2022-10-14T03:32:18.710Z,12.08
2022-10-14T03:35:06.794Z,12.05
2022-10-14T03:37:35.973Z,12.06
2022-10-14T03:40:07.842Z,12.07
2022-10-14T03:42:37.129Z,12.06
2022-10-14T03:45:06.647Z,12.45
2022-10-14T03:47:35.250Z,12.62
2022-10-14T03:50:05.083Z,12.43
2022-10-14T03:52:44.855Z,12.63
2022-10-14T03:55:24.866Z,12.51
2022-10-14T03:57:53.811Z,12.47
2022-10-14T04:00:22.400Z,12.21
2022-10-14T04:03:01.299Z,12.33
2022-10-14T04:05:37.286Z,12.32
2022-10-14T04:08:19.502Z,12.44
2022-10-14T04:10:56.503Z,12.43
2022-10-14T04:13:26.498Z,12.76
2022-10-14T04:15:55.239Z,12.66
2022-10-14T04:18:35.104Z,13.00
2022-10-14T04:21:07.117Z,12.48
2022-10-14T04:23:37.093Z,12.70
2022-10-14T04:26:14.941Z,12.37
2022-10-14T04:28:45.127Z,12.77
2022-10-14T04:31:29.112Z,12.86
2022-10-14T04:34:02.504Z,12.75
2022-10-14T04:36:38.714Z,12.82
2022-10-14T04:39:20.408Z,12.84
2022-10-14T04:41:52.164Z,12.66
2022-10-14T04:44:22.584Z,12.52
2022-10-14T04:46:54.882Z,12.81
2022-10-14T04:49:26.421Z,12.84
2022-10-14T04:52:04.066Z,12.95
2022-10-14T04:54:41.610Z,13.04
2022-10-14T04:57:11.436Z,13.13
2022-10-14T04:59:40.854Z,13.27
2022-10-14T05:02:44.455Z,13.07
2022-10-14T05:05:14.991Z,12.63
2022-10-14T05:07:45.364Z,12.18
2022-10-14T05:10:28.933Z,12.08
2022-10-14T05:12:59.074Z,12.68
2022-10-14T05:15:31.635Z,12.63
2022-10-14T05:18:13.618Z,12.61
2022-10-14T05:20:56.293Z,12.52
2022-10-14T05:23:26.262Z,12.63
2022-10-14T05:25:55.971Z,12.70
2022-10-14T05:28:26.508Z,12.82
2022-10-14T05:30:56.783Z,12.67
2022-10-14T05:33:25.544Z,12.90
2022-10-14T05:35:59.065Z,13.04
2022-10-14T05:38:32.743Z,12.65
2022-10-14T05:41:01.068Z,12.44
2022-10-14T05:43:32.609Z,12.67
2022-10-14T05:46:02.529Z,12.61
2022-10-14T05:48:35.300Z,12.71
2022-10-14T05:51:03.828Z,12.78
2022-10-14T05:53:35.836Z,13.08
2022-10-14T05:56:11.088Z,12.72
2022-10-14T05:58:42.907Z,12.76
2022-10-14T06:01:12.594Z,13.11
2022-10-14T06:03:43.175Z,13.37
2022-10-14T06:06:14.415Z,13.43
2022-10-14T06:08:43.384Z,13.35
2022-10-14T06:11:11.991Z,13.47
2022-10-14T06:13:40.855Z,13.51
2022-10-14T06:16:12.150Z,13.28
2022-10-14T06:18:40.653Z,13.01
2022-10-14T06:21:09.198Z,12.99
2022-10-14T06:23:37.645Z,12.82
2022-10-14T06:26:07.582Z,13.19
2022-10-14T06:28:36.217Z,13.51
2022-10-14T06:31:32.435Z,13.80
2022-10-14T06:34:01.173Z,13.96
2022-10-14T06:36:29.551Z,14.00
2022-10-14T06:38:57.828Z,14.10
2022-10-14T06:41:26.958Z,14.13
2022-10-14T06:43:55.330Z,14.15
2022-10-14T06:46:25.361Z,14.40
2022-10-14T06:48:55.081Z,14.42
2022-10-14T06:51:23.457Z,14.26
2022-10-14T06:53:51.894Z,14.42
2022-10-14T06:56:20.216Z,14.53
2022-10-14T06:58:49.096Z,14.74
2022-10-14T07:01:17.469Z,14.92
2022-10-14T07:03:50.565Z,14.93
2022-10-14T07:06:22.645Z,14.96
2022-10-14T07:08:51.170Z,14.78
2022-10-14T07:11:19.535Z,14.13
2022-10-14T07:13:47.814Z,14.31
2022-10-14T07:16:16.432Z,14.35
2022-10-14T07:18:44.887Z,14.53
2022-10-14T07:21:13.268Z,14.42
2022-10-14T07:23:43.278Z,14.28
2022-10-14T07:26:11.474Z,14.37
2022-10-14T07:28:39.950Z,14.52
2022-10-14T07:31:13.296Z,14.52
2022-10-14T07:33:41.993Z,14.60
2022-10-14T07:36:15.076Z,14.85
2022-10-14T07:38:48.286Z,14.79
2022-10-14T07:41:21.780Z,14.94
2022-10-14T07:43:51.997Z,14.30
2022-10-14T07:46:29.087Z,14.57
2022-10-14T07:48:58.066Z,15.37
2022-10-14T07:51:27.412Z,15.15
2022-10-14T07:53:58.631Z,14.97
2022-10-14T07:56:27.598Z,15.33
2022-10-14T07:58:56.048Z,15.38
2022-10-14T08:01:24.814Z,16.52
2022-10-14T08:03:53.651Z,16.61
2022-10-14T08:06:22.003Z,16.32
2022-10-14T08:08:50.765Z,16.55
2022-10-14T08:11:24.212Z,16.31
2022-10-14T08:13:53.223Z,16.88
2022-10-14T08:16:23.264Z,16.46
2022-10-14T08:18:52.151Z,15.38
2022-10-14T08:21:22.185Z,15.02
2022-10-14T08:23:50.740Z,15.27
2022-10-14T08:26:25.388Z,14.96
2022-10-14T08:28:53.807Z,15.41
2022-10-14T08:31:22.704Z,15.42
2022-10-14T08:33:51.554Z,16.00
2022-10-14T08:36:21.282Z,15.76
2022-10-14T08:38:49.984Z,15.60
2022-10-14T08:41:35.763Z,15.20
2022-10-14T08:44:14.560Z,16.05
2022-10-14T08:46:51.216Z,16.86
2022-10-14T08:49:29.267Z,17.03
2022-10-14T08:52:02.283Z,17.53
2022-10-14T08:54:38.033Z,18.40
2022-10-14T08:57:14.824Z,18.82
2022-10-14T08:59:43.464Z,17.60
2022-10-14T09:02:25.380Z,17.91
2022-10-14T09:04:54.014Z,18.08
2022-10-14T09:07:22.889Z,16.93
2022-10-14T09:09:54.373Z,17.08
2022-10-14T09:12:27.958Z,16.31
2022-10-14T09:15:05.501Z,16.39
2022-10-14T09:17:38.703Z,16.28
2022-10-14T09:20:19.526Z,16.57
2022-10-14T09:22:58.390Z,17.04
2022-10-14T09:25:27.192Z,17.00
2022-10-14T09:27:57.158Z,16.34
2022-10-14T09:30:25.682Z,16.63
2022-10-14T09:32:56.096Z,17.09
2022-10-14T09:35:27.118Z,16.75
2022-10-14T09:37:55.461Z,16.51
2022-10-14T09:40:30.962Z,16.18
2022-10-14T09:43:05.337Z,15.55
2022-10-14T09:45:51.523Z,15.66
2022-10-14T09:48:32.444Z,15.49
2022-10-14T09:51:03.182Z,15.15
2022-10-14T09:53:33.879Z,15.25
2022-10-14T09:56:04.194Z,15.23
2022-10-14T09:58:40.868Z,15.05
2022-10-14T10:01:16.631Z,15.83
2022-10-14T10:03:46.175Z,15.41
2022-10-14T10:06:17.109Z,15.22
2022-10-14T10:08:57.319Z,15.01
2022-10-14T10:11:30.658Z,15.12
2022-10-14T10:14:16.137Z,15.22
2022-10-14T10:16:44.740Z,16.80
2022-10-14T10:19:28.476Z,16.69
2022-10-14T10:22:16.912Z,16.93
2022-10-14T10:24:46.122Z,17.77
2022-10-14T10:27:22.277Z,18.20
2022-10-14T10:29:52.486Z,19.29
2022-10-14T10:32:31.408Z,20.25
2022-10-14T10:35:20.977Z,21.66
2022-10-14T10:38:06.860Z,21.85
2022-10-14T10:40:40.109Z,20.32
2022-10-14T10:43:36.484Z,18.75
2022-10-14T10:46:30.303Z,19.07
2022-10-14T10:49:07.280Z,18.55
2022-10-14T10:51:41.710Z,18.88
2022-10-14T10:54:25.359Z,18.97
2022-10-14T10:56:57.743Z,18.20
2022-10-14T10:59:38.332Z,19.97
2022-10-14T11:02:38.297Z,21.27
2022-10-14T11:05:13.623Z,18.91
2022-10-14T11:08:11.082Z,18.29
2022-10-14T11:11:08.261Z,17.67
2022-10-14T11:13:48.320Z,17.94
2022-10-14T11:16:26.661Z,17.59
2022-10-14T11:19:07.844Z,17.08
2022-10-14T11:21:46.914Z,16.62
2022-10-14T11:24:26.635Z,17.11
2022-10-14T11:27:05.452Z,17.20
2022-10-14T11:30:09.170Z,16.91
2022-10-14T11:32:48.768Z,17.31
2022-10-14T11:38:25.298Z,17.06
2022-10-14T11:41:02.779Z,17.15
2022-10-14T11:43:43.076Z,17.21
2022-10-14T11:46:13.901Z,17.00
2022-10-14T11:48:47.328Z,17.26
2022-10-14T11:51:22.491Z,17.11
2022-10-14T11:54:01.015Z,17.44
2022-10-14T11:56:46.873Z,18.00
2022-10-14T11:59:31.906Z,17.27
2022-10-14T12:02:27.375Z,17.26
2022-10-14T12:05:04.003Z,17.35
2022-10-14T12:07:40.521Z,16.92
2022-10-14T12:10:21.192Z,16.84
2022-10-14T12:12:52.558Z,16.70
2022-10-14T12:15:24.495Z,16.73
2022-10-14T12:17:55.278Z,16.64
2022-10-14T12:20:33.536Z,17.49
2022-10-14T12:23:04.835Z,17.44
2022-10-14T12:25:44.779Z,16.94
2022-10-14T12:28:16.270Z,16.51
2022-10-14T12:31:35.987Z,16.35
2022-10-14T12:34:38.689Z,16.27
2022-10-14T12:37:46.473Z,15.97
2022-10-14T12:40:26.401Z,16.43
2022-10-14T12:43:19.499Z,17.63
2022-10-14T12:45:58.128Z,17.60
2022-10-14T12:48:29.009Z,17.65
2022-10-14T12:51:09.021Z,16.99
2022-10-14T12:53:40.711Z,17.00
2022-10-14T12:56:11.546Z,16.93
2022-10-14T12:58:54.018Z,17.38
2022-10-14T13:01:22.932Z,17.35
2022-10-14T13:03:56.356Z,17.31
2022-10-14T13:06:36.811Z,17.69
2022-10-14T13:09:20.281Z,17.09
2022-10-14T13:12:28.886Z,17.30
2022-10-14T13:14:59.398Z,16.85
2022-10-14T13:17:43.903Z,17.01
2022-10-14T13:20:53.887Z,17.28
2022-10-14T13:23:32.964Z,17.45
2022-10-14T13:26:12.606Z,17.78
2022-10-14T13:28:50.102Z,17.28
2022-10-14T13:31:26.626Z,17.20
2022-10-14T13:34:02.798Z,16.42
2022-10-14T13:36:38.436Z,16.41
2022-10-14T13:39:07.054Z,17.28
2022-10-14T13:41:35.543Z,16.89
2022-10-14T13:44:05.626Z,17.13
2022-10-14T13:46:38.837Z,17.99
2022-10-14T13:51:53.071Z,18.33
2022-10-14T13:54:23.604Z,18.10
2022-10-14T13:57:28.684Z,17.69
2022-10-14T14:00:37.246Z,17.12
2022-10-14T14:02:47.979Z,16.96
2022-10-14T14:05:26.789Z,16.84
2022-10-14T14:11:14.970Z,17.21
2022-10-14T14:13:54.477Z,17.18
2022-10-14T14:16:29.282Z,17.09
2022-10-14T14:19:10.539Z,16.95
2022-10-14T14:21:39.447Z,16.79
2022-10-14T14:24:18.296Z,16.78
2022-10-14T14:26:56.194Z,16.86
2022-10-14T14:29:29.516Z,17.30
2022-10-14T14:32:06.700Z,17.16
2022-10-14T14:34:39.635Z,16.13
2022-10-14T14:37:40.231Z,15.92
2022-10-14T14:40:08.652Z,16.09
2022-10-14T14:42:40.764Z,16.18
2022-10-14T14:45:17.102Z,15.78
2022-10-14T14:47:47.900Z,16.04
2022-10-14T14:50:30.150Z,16.41
2022-10-14T14:53:04.026Z,16.42
2022-10-14T14:55:45.123Z,15.93
2022-10-14T14:58:24.017Z,15.64
2022-10-14T15:00:54.777Z,15.70
2022-10-14T15:03:28.049Z,15.70
2022-10-14T15:06:00.203Z,15.91
2022-10-14T15:08:30.971Z,16.28
2022-10-14T15:11:00.484Z,15.98
2022-10-14T15:13:45.658Z,16.76
2022-10-14T15:16:14.323Z,16.76
2022-10-14T15:18:44.449Z,17.40
2022-10-14T15:21:19.235Z,17.44
2022-10-14T15:24:03.333Z,17.62
2022-10-14T15:26:35.804Z,17.49
2022-10-14T15:29:16.173Z,17.95
2022-10-14T15:31:46.984Z,17.21
2022-10-14T15:34:20.710Z,17.74
2022-10-14T15:36:52.274Z,17.59
2022-10-14T15:39:21.594Z,16.93
2022-10-14T15:41:50.660Z,16.14
2022-10-14T15:44:19.100Z,15.16
2022-10-14T15:47:05.635Z,14.95
2022-10-14T15:49:40.275Z,15.19
2022-10-14T15:52:15.402Z,14.91
2022-10-14T15:54:45.878Z,14.58
2022-10-14T15:57:16.888Z,14.65
2022-10-14T15:59:49.047Z,14.47
2022-10-14T16:02:21.619Z,14.25
2022-10-14T16:05:20.859Z,14.33
2022-10-14T16:07:41.176Z,14.61
2022-10-14T16:10:13.075Z,14.25
2022-10-14T16:12:42.218Z,14.35
2022-10-14T16:15:23.603Z,14.48
2022-10-14T16:17:53.202Z,13.87
2022-10-14T16:20:23.744Z,14.08
2022-10-14T16:22:52.161Z,14.19
2022-10-14T16:25:25.243Z,14.04
2022-10-14T16:27:53.525Z,14.02
2022-10-14T16:30:22.484Z,14.24
2022-10-14T16:32:51.476Z,13.81
2022-10-14T16:35:20.152Z,13.87
2022-10-14T16:37:50.308Z,13.77
2022-10-14T16:40:18.588Z,13.96
2022-10-14T16:42:46.840Z,13.98
2022-10-14T16:45:15.070Z,13.84
2022-10-14T16:47:43.442Z,13.71
2022-10-14T16:50:12.800Z,13.97
2022-10-14T16:53:00.852Z,13.79
2022-10-14T16:55:33.410Z,13.81
2022-10-14T16:58:01.856Z,13.90
2022-10-14T17:00:30.246Z,14.04
2022-10-14T17:02:58.667Z,14.00
2022-10-14T17:05:27.104Z,13.83
2022-10-14T17:07:55.464Z,14.14
2022-10-14T17:10:24.689Z,14.09
2022-10-14T17:12:55.501Z,14.01
2022-10-14T17:15:24.916Z,14.05
2022-10-14T17:17:54.275Z,14.17
2022-10-14T17:20:22.907Z,14.22
2022-10-14T17:22:51.364Z,14.28
2022-10-14T17:25:20.104Z,14.19
2022-10-14T17:27:49.425Z,14.35
2022-10-14T17:30:19.638Z,14.23
2022-10-14T17:32:48.187Z,13.95
2022-10-14T17:35:17.017Z,14.08
2022-10-14T17:37:48.238Z,14.07
2022-10-14T17:40:16.778Z,14.08
2022-10-14T17:42:45.184Z,13.74
2022-10-14T17:45:13.654Z,13.94
2022-10-14T17:47:43.633Z,14.08
2022-10-14T17:50:12.732Z,14.04
2022-10-14T17:52:41.164Z,13.97
2022-10-14T17:55:10.524Z,13.84
2022-10-14T17:57:39.541Z,13.98
2022-10-14T18:00:09.289Z,13.55
2022-10-14T18:02:40.320Z,13.62
2022-10-14T18:05:10.955Z,13.80
2022-10-14T18:07:39.595Z,14.00
2022-10-14T18:10:10.199Z,13.95
2022-10-14T18:12:39.714Z,14.05
2022-10-14T18:15:09.542Z,14.11
2022-10-14T18:17:39.520Z,13.80
2022-10-14T18:20:08.788Z,14.05
2022-10-14T18:22:38.945Z,13.97
2022-10-14T18:25:08.563Z,14.01
2022-10-14T18:27:37.504Z,14.04
2022-10-14T18:30:07.478Z,13.68
2022-10-14T18:32:37.078Z,14.02
2022-10-14T18:35:06.741Z,13.80
2022-10-14T18:37:35.251Z,13.84
2022-10-14T18:40:05.558Z,13.99
2022-10-14T18:42:34.101Z,13.87
2022-10-14T18:45:02.577Z,14.08
2022-10-14T18:47:31.343Z,14.10
2022-10-14T18:50:00.409Z,13.99
2022-10-14T18:52:30.038Z,14.01
2022-10-14T18:54:59.060Z,13.97
2022-10-14T18:57:28.844Z,13.86
2022-10-14T18:59:58.269Z,13.47
2022-10-14T19:02:26.634Z,13.62
2022-10-14T19:04:56.106Z,12.97
2022-10-14T19:07:24.573Z,13.67
2022-10-14T19:09:55.588Z,13.46
2022-10-14T19:12:44.719Z,13.42
2022-10-14T19:15:14.409Z,13.45
2022-10-14T19:17:43.738Z,13.52
2022-10-14T19:20:12.394Z,13.51
2022-10-14T19:22:45.017Z,13.28
2022-10-14T19:25:13.680Z,13.71
2022-10-14T19:27:42.233Z,14.02
2022-10-14T19:30:11.834Z,13.93
2022-10-14T19:32:42.181Z,14.19
2022-10-14T19:35:10.968Z,14.03
2022-10-14T19:37:39.391Z,13.94
2022-10-14T19:40:08.910Z,13.83
2022-10-14T19:42:37.601Z,13.64
2022-10-14T19:45:07.548Z,13.71
2022-10-14T19:47:35.996Z,13.82
2022-10-14T19:50:07.057Z,13.88
2022-10-14T19:52:35.685Z,13.75
2022-10-14T19:55:04.220Z,13.65
2022-10-14T19:57:32.739Z,13.78
2022-10-14T20:00:01.415Z,13.83
2022-10-14T20:02:32.980Z,13.75
2022-10-14T20:05:01.351Z,13.86
2022-10-14T20:07:31.338Z,13.49
2022-10-14T20:10:02.587Z,13.66
2022-10-14T20:12:31.732Z,13.81
2022-10-14T20:15:00.239Z,13.72
2022-10-14T20:17:28.942Z,13.24
2022-10-14T20:19:57.489Z,13.26
2022-10-14T20:22:26.262Z,13.08
2022-10-14T20:24:56.132Z,13.73
2022-10-14T20:27:24.644Z,13.52
2022-10-14T20:29:53.603Z,13.51
2022-10-14T20:32:22.585Z,13.63
2022-10-14T20:34:51.182Z,13.75
2022-10-14T20:37:22.976Z,13.83
2022-10-14T20:39:55.611Z,13.93
2022-10-14T20:42:24.164Z,13.77
2022-10-14T20:44:52.635Z,13.77
2022-10-14T20:47:21.254Z,13.80
2022-10-14T20:49:50.167Z,13.69
2022-10-14T20:52:18.544Z,13.61
2022-10-14T20:54:47.036Z,13.33
2022-10-14T20:57:16.711Z,13.45
2022-10-14T20:59:45.160Z,13.46
2022-10-14T21:02:17.114Z,13.28
2022-10-14T21:04:48.713Z,13.45
2022-10-14T21:07:18.099Z,13.30
2022-10-14T21:09:46.609Z,13.21
2022-10-14T21:12:16.918Z,13.43
2022-10-14T21:14:46.102Z,13.42
2022-10-14T21:17:14.682Z,13.12
2022-10-14T21:19:43.498Z,13.13
2022-10-14T21:22:12.024Z,13.33
2022-10-14T21:24:41.388Z,13.46
2022-10-14T21:27:10.001Z,13.56
2022-10-14T21:29:40.052Z,13.65
2022-10-14T21:32:09.180Z,13.81
2022-10-14T21:34:37.792Z,13.88
2022-10-14T21:37:06.182Z,14.22
2022-10-14T21:39:34.494Z,13.90
2022-10-14T21:42:02.814Z,13.97
2022-10-14T21:44:31.221Z,14.52
2022-10-14T21:47:01.202Z,14.52
2022-10-14T21:49:29.796Z,14.52
2022-10-14T21:51:58.337Z,14.37
2022-10-14T21:54:26.998Z,14.42
2022-10-14T21:59:25.155Z,14.26
2022-10-14T22:01:56.580Z,14.67
2022-10-14T22:04:27.816Z,14.51
2022-10-14T22:06:56.394Z,14.19
2022-10-14T22:09:25.013Z,13.98
2022-10-14T22:11:54.415Z,14.29
2022-10-14T22:14:22.906Z,14.30
2022-10-14T22:16:51.430Z,14.33
2022-10-14T22:19:19.969Z,14.55
2022-10-14T22:21:50.346Z,14.09
2022-10-14T22:24:18.810Z,14.29
2022-10-14T22:26:47.218Z,14.67
2022-10-14T22:29:16.997Z,14.29
2022-10-14T22:31:46.057Z,14.59
2022-10-14T22:34:16.616Z,14.50
2022-10-14T22:36:46.174Z,14.29
2022-10-14T22:39:18.184Z,14.27
2022-10-14T22:41:46.957Z,14.69
2022-10-14T22:44:15.613Z,14.78
2022-10-14T22:46:44.102Z,14.33
2022-10-14T22:49:12.475Z,14.45
2022-10-14T22:51:41.632Z,14.08
2022-10-14T22:54:10.607Z,14.45
2022-10-14T22:56:40.580Z,14.75
2022-10-14T22:59:11.817Z,14.59
2022-10-14T23:01:43.340Z,14.38
2022-10-14T23:04:12.560Z,14.59
2022-10-14T23:06:43.766Z,15.21
2022-10-14T23:09:12.354Z,14.95
2022-10-14T23:11:42.624Z,15.04
2022-10-14T23:14:11.300Z,14.65
2022-10-14T23:16:40.214Z,14.97
2022-10-14T23:19:09.231Z,15.11
2022-10-14T23:21:38.756Z,14.38
2022-10-14T23:24:09.584Z,14.88
2022-10-14T23:26:38.693Z,15.14
2022-10-14T23:29:11.401Z,15.38
2022-10-14T23:31:40.907Z,14.50
2022-10-14T23:34:12.869Z,14.73
2022-10-14T23:36:41.844Z,13.81
2022-10-14T23:39:10.526Z,14.15
2022-10-14T23:41:39.188Z,14.29
2022-10-14T23:44:08.961Z,13.98
2022-10-14T23:46:37.271Z,13.78
2022-10-14T23:49:21.171Z,14.34
2022-10-14T23:51:53.787Z,14.27
2022-10-14T23:54:22.579Z,14.15
2022-10-14T23:56:50.966Z,14.03
2022-10-14T23:59:21.057Z,13.39
